Time;durP1;ratioP1;P1;durP2;ratioP2;P2;SDS_P1;SDS_P2;PMS_P1;PMS_P2;Temp;Humidity;BMP_temperature;BMP_pressure;BME280_temperature;BME280_humidity;BME280_pressure;Samples;Min_cycle;Max_cycle;Signal;HPM_P1;HPM_P2
2023/03/04 00:00:57;;;;;;;56.97;24.58;;;;;;;;;;5027629;28;20112;-77
2023/03/04 00:03:25;;;;;;;57.05;23.60;;;;;;;;;;5023937;28;20032;-75
2023/03/04 00:05:53;;;;;;;62.35;26.00;;;;;;;;;;5021144;28;20025;-76
2023/03/04 00:08:18;;;;;;;62.20;25.42;;;;;;;;;;5021560;28;20022;-76
2023/03/04 00:10:46;;;;;;;60.25;25.02;;;;;;;;;;5025313;28;20072;-74
2023/03/04 00:13:11;;;;;;;62.20;25.70;;;;;;;;;;5015855;28;20117;-75
2023/03/04 00:15:37;;;;;;;59.10;25.73;;;;;;;;;;5026758;28;20104;-76
2023/03/04 00:18:02;;;;;;;64.55;26.02;;;;;;;;;;5023021;28;20018;-76
2023/03/04 00:20:29;;;;;;;63.75;25.23;;;;;;;;;;5021605;28;20042;-76
2023/03/04 00:22:56;;;;;;;60.70;25.38;;;;;;;;;;5014532;28;20029;-76
2023/03/04 00:25:22;;;;;;;78.50;26.33;;;;;;;;;;5020110;28;20032;-75
2023/03/04 00:27:48;;;;;;;63.65;25.38;;;;;;;;;;5022722;28;20033;-77
2023/03/04 00:30:13;;;;;;;60.72;24.45;;;;;;;;;;5029748;28;20027;-77
2023/03/04 00:32:38;;;;;;;61.33;25.45;;;;;;;;;;5029209;28;20017;-78
2023/03/04 00:35:06;;;;;;;58.65;26.33;;;;;;;;;;5023044;28;20424;-76
2023/03/04 00:37:33;;;;;;;58.63;26.13;;;;;;;;;;5027351;28;20032;-75
2023/03/04 00:40:01;;;;;;;59.40;24.55;;;;;;;;;;5027798;28;20060;-76
2023/03/04 00:42:29;;;;;;;60.00;25.25;;;;;;;;;;5028977;28;20263;-75
2023/03/04 00:44:54;;;;;;;59.22;25.35;;;;;;;;;;5027834;28;20143;-75
2023/03/04 00:47:20;;;;;;;61.22;25.95;;;;;;;;;;5024768;28;20041;-76
2023/03/04 00:49:45;;;;;;;60.90;25.35;;;;;;;;;;5029080;28;20026;-77
2023/03/04 00:52:10;;;;;;;62.25;25.88;;;;;;;;;;5024430;28;20507;-75
2023/03/04 00:54:36;;;;;;;67.13;26.33;;;;;;;;;;5028549;28;20033;-76
2023/03/04 00:57:01;;;;;;;58.08;24.48;;;;;;;;;;5029936;28;20029;-76
2023/03/04 00:59:27;;;;;;;62.55;26.67;;;;;;;;;;5026059;28;20033;-76
2023/03/04 01:01:52;;;;;;;68.72;27.55;;;;;;;;;;5030152;28;20037;-77
2023/03/04 01:04:17;;;;;;;62.65;27.80;;;;;;;;;;5028561;28;20029;-76
2023/03/04 01:06:43;;;;;;;70.88;28.65;;;;;;;;;;5028823;28;20495;-77
2023/03/04 01:09:08;;;;;;;61.88;27.10;;;;;;;;;;5030280;28;20027;-77
2023/03/04 01:11:33;;;;;;;65.25;25.70;;;;;;;;;;5026834;28;20357;-76
2023/03/04 01:13:59;;;;;;;60.88;24.00;;;;;;;;;;5028802;28;20057;-76
2023/03/04 01:16:27;;;;;;;65.43;25.98;;;;;;;;;;5025672;28;20030;-76
2023/03/04 01:18:54;;;;;;;66.93;25.80;;;;;;;;;;5026965;28;20048;-76
2023/03/04 01:21:19;;;;;;;66.15;26.25;;;;;;;;;;5022792;28;20037;-76
2023/03/04 01:23:45;;;;;;;66.93;26.70;;;;;;;;;;5029637;28;20037;-77
2023/03/04 01:26:10;;;;;;;61.35;25.65;;;;;;;;;;5030120;28;20035;-77
2023/03/04 01:28:36;;;;;;;62.30;24.60;;;;;;;;;;5028499;28;20412;-76
2023/03/04 01:31:02;;;;;;;66.53;27.42;;;;;;;;;;5020129;28;20021;-76
2023/03/04 01:33:30;;;;;;;64.03;27.05;;;;;;;;;;5018600;28;20504;-76
2023/03/04 01:35:56;;;;;;;66.25;26.45;;;;;;;;;;5020210;28;20041;-76
2023/03/04 01:38:24;;;;;;;66.43;25.45;;;;;;;;;;5025803;28;20091;-76
2023/03/04 01:40:50;;;;;;;63.08;27.75;;;;;;;;;;5017730;28;20030;-76
2023/03/04 01:43:25;;;;;;;65.88;26.65;;;;;;;;;;5030838;28;20480;-76
2023/03/04 01:45:51;;;;;;;68.85;26.80;;;;;;;;;;5026192;28;20037;-76
2023/03/04 01:48:23;;;;;;;64.95;26.15;;;;;;;;;;5027679;28;20039;-78
2023/03/04 01:50:49;;;;;;;64.93;26.63;;;;;;;;;;5024690;28;20033;-76
2023/03/04 01:53:19;;;;;;;64.35;26.27;;;;;;;;;;5028707;28;20032;-76
2023/03/04 01:55:45;;;;;;;64.55;25.40;;;;;;;;;;5025434;28;20293;-76
2023/03/04 01:58:11;;;;;;;66.57;26.20;;;;;;;;;;5030178;28;20110;-76
2023/03/04 02:00:37;;;;;;;61.63;25.33;;;;;;;;;;5029049;28;20509;-76
2023/03/04 02:03:06;;;;;;;63.80;26.25;;;;;;;;;;5028878;28;20034;-76
2023/03/04 02:05:34;;;;;;;65.15;25.55;;;;;;;;;;5028843;28;20030;-76
2023/03/04 02:08:00;;;;;;;69.05;27.55;;;;;;;;;;5027546;28;20017;-75
2023/03/04 02:10:26;;;;;;;65.43;26.92;;;;;;;;;;5028635;28;20021;-77
2023/03/04 02:12:53;;;;;;;65.85;26.13;;;;;;;;;;5028587;28;20377;-75
2023/03/04 02:15:19;;;;;;;64.95;26.33;;;;;;;;;;5027710;28;20060;-77
2023/03/04 02:17:47;;;;;;;59.80;24.95;;;;;;;;;;5016974;28;20029;-76
2023/03/04 02:20:29;;;;;;;67.40;25.85;;;;;;;;;;5027338;28;20557;-75
2023/03/04 02:23:37;;;;;;;64.45;25.67;;;;;;;;;;5019885;28;20040;-76
2023/03/04 02:26:15;;;;;;;65.60;25.95;;;;;;;;;;5035367;28;20049;-78
2023/03/04 02:28:52;;;;;;;63.47;26.10;;;;;;;;;;5023702;28;20022;-76
2023/03/04 02:31:49;;;;;;;66.70;26.00;;;;;;;;;;5033157;28;20033;-76
2023/03/04 02:34:23;;;;;;;67.13;25.30;;;;;;;;;;5027665;28;20208;-75
2023/03/04 02:36:51;;;;;;;72.72;26.73;;;;;;;;;;5030115;28;20171;-76
2023/03/04 02:39:19;;;;;;;63.88;26.10;;;;;;;;;;5028807;28;20032;-77
2023/03/04 02:41:50;;;;;;;69.53;26.35;;;;;;;;;;5028517;28;20025;-76
2023/03/04 02:44:30;;;;;;;64.28;24.73;;;;;;;;;;5026778;28;20507;-75
2023/03/04 02:46:56;;;;;;;62.42;25.85;;;;;;;;;;5033062;28;20033;-75
2023/03/04 02:49:24;;;;;;;66.90;27.02;;;;;;;;;;5029765;28;20037;-76
2023/03/04 02:51:52;;;;;;;65.25;27.17;;;;;;;;;;5025294;28;20395;-75
2023/03/04 02:54:22;;;;;;;75.05;28.10;;;;;;;;;;5031793;28;20056;-77
2023/03/04 02:56:51;;;;;;;69.63;27.33;;;;;;;;;;5030174;28;20092;-76
2023/03/04 02:59:17;;;;;;;67.63;27.08;;;;;;;;;;5027491;28;20029;-77
2023/03/04 03:01:43;;;;;;;70.63;26.58;;;;;;;;;;5033034;28;20460;-75
2023/03/04 03:04:08;;;;;;;71.63;27.92;;;;;;;;;;5027893;28;20033;-75
2023/03/04 03:06:36;;;;;;;68.63;27.05;;;;;;;;;;5031384;28;20025;-75
2023/03/04 03:09:02;;;;;;;69.57;27.45;;;;;;;;;;5033102;28;20052;-76
2023/03/04 03:11:30;;;;;;;69.85;27.95;;;;;;;;;;5022161;28;20037;-76
2023/03/04 03:13:56;;;;;;;75.53;27.33;;;;;;;;;;5026387;28;20052;-76
2023/03/04 03:16:21;;;;;;;71.10;27.60;;;;;;;;;;5031063;28;20029;-75
2023/03/04 03:18:47;;;;;;;76.25;28.42;;;;;;;;;;5030392;28;20033;-77
2023/03/04 03:21:12;;;;;;;71.10;28.15;;;;;;;;;;5028668;28;20112;-77
2023/03/04 03:23:37;;;;;;;67.22;26.83;;;;;;;;;;5026949;28;20030;-77
2023/03/04 03:26:04;;;;;;;71.95;27.83;;;;;;;;;;5023145;28;20550;-75
2023/03/04 03:28:29;;;;;;;70.47;27.35;;;;;;;;;;5025324;28;20335;-76
2023/03/04 03:30:55;;;;;;;65.35;26.73;;;;;;;;;;5021693;28;20029;-76
2023/03/04 03:33:23;;;;;;;70.13;28.17;;;;;;;;;;5028994;28;20049;-76
2023/03/04 03:35:48;;;;;;;67.70;27.15;;;;;;;;;;5024802;28;20041;-76
2023/03/04 03:38:16;;;;;;;66.25;27.10;;;;;;;;;;5028779;28;20030;-76
2023/03/04 03:40:42;;;;;;;71.60;28.75;;;;;;;;;;5027093;28;20025;-75
2023/03/04 03:43:07;;;;;;;71.13;28.17;;;;;;;;;;5026863;28;20029;-75
2023/03/04 03:45:33;;;;;;;69.28;28.77;;;;;;;;;;5030197;28;20091;-76
2023/03/04 03:47:58;;;;;;;73.85;26.77;;;;;;;;;;5028915;28;20052;-76
2023/03/04 03:50:24;;;;;;;67.68;26.95;;;;;;;;;;5028329;28;20378;-75
2023/03/04 03:52:49;;;;;;;75.13;28.58;;;;;;;;;;5033100;28;20029;-75
2023/03/04 03:55:14;;;;;;;70.57;27.15;;;;;;;;;;5024527;28;20037;-77
2023/03/04 03:57:40;;;;;;;73.00;28.92;;;;;;;;;;5031642;28;20484;-76
2023/03/04 04:00:10;;;;;;;70.30;28.23;;;;;;;;;;5031206;28;20463;-77
2023/03/04 04:02:35;;;;;;;66.75;25.95;;;;;;;;;;5031331;28;20029;-77
2023/03/04 04:05:00;;;;;;;70.35;26.63;;;;;;;;;;5026574;28;20442;-74
2023/03/04 04:07:26;;;;;;;67.65;27.73;;;;;;;;;;5025644;28;20104;-75
2023/03/04 04:09:51;;;;;;;67.75;26.08;;;;;;;;;;5029391;28;20025;-74
2023/03/04 04:12:18;;;;;;;79.65;30.30;;;;;;;;;;5026419;28;20620;-74
2023/03/04 04:14:43;;;;;;;71.38;27.70;;;;;;;;;;5031787;28;20084;-75
2023/03/04 04:17:10;;;;;;;71.47;27.48;;;;;;;;;;5022853;28;20034;-76
2023/03/04 04:19:35;;;;;;;63.20;25.85;;;;;;;;;;5018448;28;20026;-75
2023/03/04 04:22:02;;;;;;;63.58;25.45;;;;;;;;;;5022846;28;20566;-75
2023/03/04 04:24:27;;;;;;;72.57;27.38;;;;;;;;;;5028317;28;20481;-76
2023/03/04 04:26:52;;;;;;;69.28;27.85;;;;;;;;;;5019804;28;20063;-75
2023/03/04 04:29:18;;;;;;;71.75;27.77;;;;;;;;;;5030185;28;20089;-74
2023/03/04 04:31:46;;;;;;;68.50;28.13;;;;;;;;;;5030714;28;20087;-78
2023/03/04 04:34:11;;;;;;;70.13;27.73;;;;;;;;;;5031959;28;20468;-75
2023/03/04 04:36:36;;;;;;;68.72;27.52;;;;;;;;;;5031337;28;20159;-76
2023/03/04 04:39:02;;;;;;;69.22;27.13;;;;;;;;;;5021588;28;20022;-77
2023/03/04 04:41:33;;;;;;;70.18;25.95;;;;;;;;;;5028400;28;20041;-77
2023/03/04 04:44:01;;;;;;;74.90;27.45;;;;;;;;;;5030073;28;20029;-74
2023/03/04 04:46:26;;;;;;;62.50;25.20;;;;;;;;;;5028418;28;20053;-76
2023/03/04 04:48:52;;;;;;;65.97;25.67;;;;;;;;;;5028415;28;20025;-77
2023/03/04 04:51:17;;;;;;;60.20;26.17;;;;;;;;;;5027524;28;20045;-76
2023/03/04 04:53:43;;;;;;;65.78;25.77;;;;;;;;;;5026496;28;20112;-75
2023/03/04 04:56:14;;;;;;;61.17;23.80;;;;;;;;;;5030501;28;20396;-76
2023/03/04 04:58:43;;;;;;;63.92;24.90;;;;;;;;;;5029873;28;20026;-75
2023/03/04 05:01:09;;;;;;;63.65;25.38;;;;;;;;;;5027315;28;20041;-76
2023/03/04 05:03:38;;;;;;;62.08;25.13;;;;;;;;;;5026663;28;20059;-76
2023/03/04 05:06:05;;;;;;;61.08;24.02;;;;;;;;;;5029393;28;20129;-75
2023/03/04 05:08:31;;;;;;;65.63;25.75;;;;;;;;;;5026161;28;20092;-75
2023/03/04 05:10:57;;;;;;;67.38;26.13;;;;;;;;;;5025839;28;20551;-75
2023/03/04 05:13:22;;;;;;;61.83;24.70;;;;;;;;;;5028540;28;20092;-75
2023/03/04 05:15:51;;;;;;;59.67;23.30;;;;;;;;;;5029741;28;20427;-75
2023/03/04 05:18:17;;;;;;;60.67;22.27;;;;;;;;;;5026787;28;20400;-76
2023/03/04 05:20:43;;;;;;;60.60;23.48;;;;;;;;;;5027103;28;20029;-77
2023/03/04 05:23:08;;;;;;;64.43;25.25;;;;;;;;;;5021913;28;20455;-75
2023/03/04 05:25:36;;;;;;;68.18;24.27;;;;;;;;;;5025735;28;20033;-75
2023/03/04 05:28:03;;;;;;;64.90;23.92;;;;;;;;;;5018348;28;20025;-75
2023/03/04 05:30:29;;;;;;;59.95;22.90;;;;;;;;;;5030377;28;20025;-74
2023/03/04 05:32:54;;;;;;;58.40;23.38;;;;;;;;;;5027866;28;21043;-76
2023/03/04 05:35:19;;;;;;;60.45;22.92;;;;;;;;;;5021955;28;20476;-76
2023/03/04 05:37:45;;;;;;;62.97;24.75;;;;;;;;;;5020865;28;20076;-75
2023/03/04 05:40:11;;;;;;;62.95;24.65;;;;;;;;;;5027570;28;20013;-76
2023/03/04 05:42:36;;;;;;;63.65;26.02;;;;;;;;;;5025927;28;20026;-76
2023/03/04 05:45:02;;;;;;;58.65;22.50;;;;;;;;;;5022284;28;20032;-78
2023/03/04 05:47:27;;;;;;;60.65;23.20;;;;;;;;;;5011144;28;20064;-75
2023/03/04 05:49:53;;;;;;;58.97;24.55;;;;;;;;;;5011363;28;20026;-74
2023/03/04 05:52:20;;;;;;;68.90;26.48;;;;;;;;;;5028359;28;20806;-76
2023/03/04 05:54:46;;;;;;;68.32;25.70;;;;;;;;;;5029803;28;20480;-77
2023/03/04 05:57:11;;;;;;;73.72;27.75;;;;;;;;;;5021091;28;20025;-75
2023/03/04 05:59:37;;;;;;;72.47;28.88;;;;;;;;;;5025150;28;20053;-77
2023/03/04 06:02:02;;;;;;;63.40;25.45;;;;;;;;;;5028515;28;20040;-76
2023/03/04 06:04:28;;;;;;;70.20;26.75;;;;;;;;;;5017061;28;20387;-77
2023/03/04 06:06:53;;;;;;;64.22;25.35;;;;;;;;;;5022603;28;20028;-76
2023/03/04 06:09:20;;;;;;;63.33;23.40;;;;;;;;;;5029173;28;20091;-76
2023/03/04 06:11:45;;;;;;;64.22;25.90;;;;;;;;;;5028167;28;20105;-76
2023/03/04 06:14:12;;;;;;;70.32;26.70;;;;;;;;;;5031938;28;20100;-76
2023/03/04 06:16:38;;;;;;;64.10;25.40;;;;;;;;;;5022443;28;20025;-76
2023/03/04 06:19:03;;;;;;;61.78;24.70;;;;;;;;;;5026059;28;20699;-75
2023/03/04 06:21:31;;;;;;;73.25;25.83;;;;;;;;;;5026269;28;20112;-76
2023/03/04 06:23:57;;;;;;;62.15;24.98;;;;;;;;;;5024076;28;20080;-75
2023/03/04 06:26:22;;;;;;;72.85;26.10;;;;;;;;;;5025459;28;20030;-76
2023/03/04 06:28:47;;;;;;;71.38;27.40;;;;;;;;;;5016765;28;20448;-74
2023/03/04 06:31:15;;;;;;;70.00;26.73;;;;;;;;;;5022484;28;20026;-74
2023/03/04 06:33:40;;;;;;;67.18;24.70;;;;;;;;;;5021200;28;20022;-75
2023/03/04 06:36:08;;;;;;;76.25;27.02;;;;;;;;;;5026244;28;20025;-77
2023/03/04 06:38:34;;;;;;;82.30;30.42;;;;;;;;;;5023476;28;20430;-75
2023/03/04 06:41:08;;;;;;;75.75;28.27;;;;;;;;;;5026541;28;20021;-75
2023/03/04 06:43:35;;;;;;;74.82;26.98;;;;;;;;;;5025112;28;20076;-75
2023/03/04 06:46:01;;;;;;;68.70;27.13;;;;;;;;;;5020746;28;20030;-74
2023/03/04 06:48:27;;;;;;;73.50;27.25;;;;;;;;;;5022719;28;20029;-76
2023/03/04 06:50:52;;;;;;;76.72;30.42;;;;;;;;;;5023586;28;20022;-74
2023/03/04 06:53:18;;;;;;;64.45;25.85;;;;;;;;;;5031928;28;20615;-75
2023/03/04 06:55:43;;;;;;;72.25;28.42;;;;;;;;;;5019887;28;20048;-75
2023/03/04 06:58:11;;;;;;;74.07;28.88;;;;;;;;;;5028937;28;20152;-74
2023/03/04 07:00:36;;;;;;;81.57;30.58;;;;;;;;;;5023046;28;20032;-74
2023/03/04 07:03:02;;;;;;;75.85;30.48;;;;;;;;;;5025794;28;20116;-77
2023/03/04 07:05:27;;;;;;;68.10;28.10;;;;;;;;;;5027603;28;20618;-77
2023/03/04 07:07:52;;;;;;;68.38;26.75;;;;;;;;;;5031374;28;20017;-76
2023/03/04 07:10:20;;;;;;;70.88;28.70;;;;;;;;;;5030600;28;20570;-77
2023/03/04 07:12:46;;;;;;;80.18;31.33;;;;;;;;;;5022420;28;20022;-76
2023/03/04 07:15:11;;;;;;;84.43;30.73;;;;;;;;;;5020876;28;20165;-76
2023/03/04 07:17:39;;;;;;;89.72;33.28;;;;;;;;;;5026062;28;20106;-75
2023/03/04 07:20:10;;;;;;;83.18;30.80;;;;;;;;;;5022218;28;20129;-74
2023/03/04 07:22:35;;;;;;;83.70;31.67;;;;;;;;;;5025128;28;20338;-74
2023/03/04 07:25:01;;;;;;;77.80;31.92;;;;;;;;;;5026510;28;20021;-75
2023/03/04 07:27:26;;;;;;;80.40;29.08;;;;;;;;;;5017353;28;20025;-75
2023/03/04 07:29:51;;;;;;;81.35;31.23;;;;;;;;;;5026793;28;20032;-76
2023/03/04 07:32:17;;;;;;;84.32;30.67;;;;;;;;;;5017912;28;20025;-75
2023/03/04 07:34:42;;;;;;;85.13;33.85;;;;;;;;;;5021993;28;20477;-75
2023/03/04 07:37:08;;;;;;;75.97;32.33;;;;;;;;;;5020760;28;20036;-75
2023/03/04 07:39:35;;;;;;;90.10;32.78;;;;;;;;;;5022968;28;20024;-75
2023/03/04 07:42:03;;;;;;;83.18;32.60;;;;;;;;;;5031461;28;20021;-75
2023/03/04 07:44:31;;;;;;;85.43;32.78;;;;;;;;;;5027925;28;20108;-77
2023/03/04 07:46:59;;;;;;;87.93;34.60;;;;;;;;;;5026153;28;20029;-75
2023/03/04 07:49:24;;;;;;;77.00;31.90;;;;;;;;;;5023051;28;20026;-76
2023/03/04 07:51:52;;;;;;;82.10;33.88;;;;;;;;;;5022084;28;20045;-75
2023/03/04 07:54:19;;;;;;;86.75;33.22;;;;;;;;;;5031174;28;20037;-75
2023/03/04 07:56:44;;;;;;;86.20;33.33;;;;;;;;;;5022669;28;20021;-74
2023/03/04 07:59:10;;;;;;;89.60;35.75;;;;;;;;;;5029187;28;20029;-75
2023/03/04 08:01:36;;;;;;;87.35;32.53;;;;;;;;;;5025962;28;20480;-76
2023/03/04 08:04:07;;;;;;;86.80;32.50;;;;;;;;;;5024302;28;20018;-76
2023/03/04 08:06:36;;;;;;;81.78;30.65;;;;;;;;;;5024295;28;20041;-75
2023/03/04 08:09:06;;;;;;;79.25;32.08;;;;;;;;;;5020795;28;20026;-75
2023/03/04 08:11:31;;;;;;;;;;;;;;;;;;5019989;28;20083;-77
2023/03/04 08:13:57;;;;;;;97.65;33.33;;;;;;;;;;5025905;28;20335;-74
2023/03/04 08:16:24;;;;;;;85.55;33.65;;;;;;;;;;5020363;28;20034;-77
2023/03/04 08:18:56;;;;;;;88.75;32.22;;;;;;;;;;5018232;28;20052;-76
2023/03/04 08:21:23;;;;;;;94.55;35.00;;;;;;;;;;5022356;28;20798;-76
2023/03/04 08:23:49;;;;;;;81.88;32.92;;;;;;;;;;5021293;28;20037;-77
2023/03/04 08:26:22;;;;;;;90.43;33.35;;;;;;;;;;5018436;28;20435;-76
2023/03/04 08:28:47;;;;;;;95.45;32.45;;;;;;;;;;5022964;28;20108;-76
2023/03/04 08:31:16;;;;;;;83.95;31.25;;;;;;;;;;5025046;28;20100;-77
2023/03/04 08:33:42;;;;;;;87.75;32.42;;;;;;;;;;5017743;28;20022;-76
2023/03/04 08:36:08;;;;;;;98.60;33.38;;;;;;;;;;5023912;28;20491;-77
2023/03/04 08:38:36;;;;;;;98.63;31.80;;;;;;;;;;5022697;28;20550;-75
2023/03/04 08:41:04;;;;;;;91.07;31.23;;;;;;;;;;5022802;28;20061;-75
2023/03/04 08:43:30;;;;;;;96.15;32.78;;;;;;;;;;5021682;28;20034;-75
2023/03/04 08:45:56;;;;;;;103.05;35.03;;;;;;;;;;5023462;28;20372;-75
2023/03/04 08:48:22;;;;;;;98.10;34.28;;;;;;;;;;5021575;28;20109;-76
2023/03/04 08:50:48;;;;;;;102.07;32.67;;;;;;;;;;5023647;28;20032;-75
2023/03/04 08:53:14;;;;;;;106.90;33.88;;;;;;;;;;5023192;28;20038;-75
2023/03/04 08:55:41;;;;;;;100.82;33.33;;;;;;;;;;5028191;28;20030;-76
2023/03/04 08:58:07;;;;;;;108.60;34.17;;;;;;;;;;5028781;28;20033;-76
2023/03/04 09:00:35;;;;;;;113.72;34.95;;;;;;;;;;5028256;28;20455;-78
2023/03/04 09:03:00;;;;;;;114.07;35.55;;;;;;;;;;5026183;28;20184;-76
2023/03/04 09:05:26;;;;;;;112.93;35.67;;;;;;;;;;5018976;28;20120;-76
2023/03/04 09:07:53;;;;;;;106.78;33.17;;;;;;;;;;5017440;28;20035;-77
2023/03/04 09:10:23;;;;;;;115.00;34.67;;;;;;;;;;5022915;28;20026;-74
2023/03/04 09:12:49;;;;;;;117.30;37.00;;;;;;;;;;5024783;28;20029;-75
2023/03/04 09:15:14;;;;;;;139.65;35.90;;;;;;;;;;5027296;28;20342;-76
2023/03/04 09:17:40;;;;;;;115.15;37.20;;;;;;;;;;5015589;28;20093;-76
2023/03/04 09:20:10;;;;;;;113.57;34.33;;;;;;;;;;5020859;28;20402;-78
2023/03/04 09:22:36;;;;;;;122.40;37.13;;;;;;;;;;5024491;28;20022;-77
2023/03/04 09:25:02;;;;;;;119.40;35.47;;;;;;;;;;5024988;28;20108;-76
2023/03/04 09:27:28;;;;;;;106.05;33.22;;;;;;;;;;5020632;28;20132;-75
2023/03/04 09:29:55;;;;;;;110.35;32.78;;;;;;;;;;5019252;28;20030;-75
2023/03/04 09:32:23;;;;;;;95.40;29.05;;;;;;;;;;5020292;28;20026;-76
2023/03/04 09:34:48;;;;;;;101.85;29.95;;;;;;;;;;5021504;28;20049;-76
2023/03/04 09:37:18;;;;;;;106.00;30.35;;;;;;;;;;5023731;28;20128;-79
2023/03/04 09:39:44;;;;;;;;;;;;;;;;;;5021190;28;20365;-76
2023/03/04 09:42:22;;;;;;;99.50;30.30;;;;;;;;;;5018229;28;19914;-75
2023/03/04 09:44:50;;;;;;;113.30;35.10;;;;;;;;;;5023396;28;20041;-75
2023/03/04 09:47:18;;;;;;;116.05;34.97;;;;;;;;;;5025821;28;20026;-74
2023/03/04 09:49:54;;;;;;;107.32;30.75;;;;;;;;;;5026641;28;20419;-76
2023/03/04 09:52:19;;;;;;;118.68;32.53;;;;;;;;;;5025779;28;20029;-76
2023/03/04 09:54:59;;;;;;;102.40;32.08;;;;;;;;;;5023345;28;20048;-76
2023/03/04 09:57:49;;;;;;;130.60;34.00;;;;;;;;;;5028966;28;20099;-76
2023/03/04 10:00:26;;;;;;;113.25;33.30;;;;;;;;;;5028143;28;20045;-77
2023/03/04 10:03:13;;;;;;;110.40;32.88;;;;;;;;;;5025736;28;20026;-78
2023/03/04 10:06:03;;;;;;;113.28;32.10;;;;;;;;;;5027044;28;20030;-77
2023/03/04 10:08:35;;;;;;;106.95;31.83;;;;;;;;;;5024426;28;20049;-76
2023/03/04 10:11:04;;;;;;;99.93;29.45;;;;;;;;;;5022534;28;20044;-76
2023/03/04 10:13:37;;;;;;;108.60;31.42;;;;;;;;;;5028553;28;20037;-76
2023/03/04 10:16:08;;;;;;;96.05;30.45;;;;;;;;;;5026343;28;20038;-75
2023/03/04 10:18:57;;;;;;;97.40;28.90;;;;;;;;;;5027562;28;20450;-77
2023/03/04 10:21:32;;;;;;;87.65;26.40;;;;;;;;;;5029320;28;20052;-74
2023/03/04 10:24:00;;;;;;;79.28;24.00;;;;;;;;;;5022087;28;20050;-75
2023/03/04 10:26:31;;;;;;;77.63;23.65;;;;;;;;;;5024625;28;20030;-76
2023/03/04 10:29:01;;;;;;;73.93;23.10;;;;;;;;;;5023203;28;20018;-76
2023/03/04 10:31:37;;;;;;;;;;;;;;;;;;5026567;28;20028;-76
2023/03/04 10:34:03;;;;;;;85.15;24.70;;;;;;;;;;5027025;28;20007;-75
2023/03/04 10:36:38;;;;;;;74.10;23.65;;;;;;;;;;5017054;28;20030;-75
2023/03/04 10:39:12;;;;;;;91.90;26.83;;;;;;;;;;5016700;28;20070;-75
2023/03/04 10:41:45;;;;;;;100.28;27.80;;;;;;;;;;5025608;28;20040;-74
2023/03/04 10:44:16;;;;;;;87.22;25.77;;;;;;;;;;5027839;28;20392;-75
2023/03/04 10:46:44;;;;;;;83.07;25.88;;;;;;;;;;5022671;28;20186;-75
2023/03/04 10:49:15;;;;;;;85.38;23.85;;;;;;;;;;5026711;28;20021;-75
2023/03/04 10:51:50;;;;;;;79.13;23.90;;;;;;;;;;5031077;28;20040;-75
2023/03/04 10:54:26;;;;;;;82.38;24.40;;;;;;;;;;5029267;28;20025;-76
2023/03/04 10:57:14;;;;;;;65.75;21.02;;;;;;;;;;5027715;28;20025;-75
2023/03/04 10:59:45;;;;;;;60.80;19.13;;;;;;;;;;5030832;28;20037;-76
2023/03/04 11:02:21;;;;;;;67.75;21.65;;;;;;;;;;5030959;28;20025;-75
2023/03/04 11:05:06;;;;;;;75.43;21.08;;;;;;;;;;5026954;28;20021;-76
2023/03/04 11:07:35;;;;;;;67.85;19.90;;;;;;;;;;5030907;28;20112;-75
2023/03/04 11:10:12;;;;;;;68.32;19.90;;;;;;;;;;5029641;28;20042;-75
2023/03/04 11:12:38;;;;;;;72.03;21.40;;;;;;;;;;5026032;28;20061;-75
2023/03/04 11:15:17;;;;;;;69.20;20.88;;;;;;;;;;5021863;28;20515;-75
2023/03/04 11:17:46;;;;;;;;;;;;;;;;;;5022637;28;20026;-75
2023/03/04 11:20:30;;;;;;;66.00;20.25;;;;;;;;;;5028124;28;19913;-76
2023/03/04 11:23:08;;;;;;;73.40;21.42;;;;;;;;;;5032940;28;20061;-76
2023/03/04 11:25:37;;;;;;;73.20;21.95;;;;;;;;;;5026426;28;20025;-75
2023/03/04 11:28:38;;;;;;;65.90;21.40;;;;;;;;;;5029296;28;20063;-76
2023/03/04 11:31:15;;;;;;;67.53;19.42;;;;;;;;;;5032951;28;20033;-77
2023/03/04 11:33:51;;;;;;;63.47;19.55;;;;;;;;;;5032766;28;20021;-78
2023/03/04 11:36:30;;;;;;;67.38;20.58;;;;;;;;;;5022204;28;20108;-77
2023/03/04 11:38:56;;;;;;;65.22;21.10;;;;;;;;;;5031098;28;20112;-77
2023/03/04 11:41:32;;;;;;;73.78;21.52;;;;;;;;;;5027293;28;20033;-76
2023/03/04 11:43:59;;;;;;;77.03;22.73;;;;;;;;;;5028157;28;20048;-76
2023/03/04 11:46:45;;;;;;;76.10;22.45;;;;;;;;;;5025746;28;20037;-76
2023/03/04 11:49:32;;;;;;;70.60;20.08;;;;;;;;;;5022318;28;20026;-76
2023/03/04 11:52:26;;;;;;;69.45;21.48;;;;;;;;;;5024955;28;20036;-74
2023/03/04 11:55:07;;;;;;;64.95;19.55;;;;;;;;;;5022424;28;20101;-76
2023/03/04 11:57:54;;;;;;;74.55;22.20;;;;;;;;;;5027222;28;20447;-77
2023/03/04 12:00:50;;;;;;;68.45;21.83;;;;;;;;;;5022842;28;20202;-74
2023/03/04 12:03:39;;;;;;;76.47;21.45;;;;;;;;;;5030174;28;20037;-74
2023/03/04 12:06:18;;;;;;;74.00;21.25;;;;;;;;;;5030828;28;20492;-74
2023/03/04 12:09:09;;;;;;;66.70;21.90;;;;;;;;;;5030934;28;20029;-75
2023/03/04 12:11:52;;;;;;;62.83;21.02;;;;;;;;;;5022978;28;20129;-77
2023/03/04 12:14:45;;;;;;;67.00;20.85;;;;;;;;;;5028808;28;20384;-75
2023/03/04 12:17:44;;;;;;;68.53;22.42;;;;;;;;;;5040803;28;20104;-75
2023/03/04 12:20:34;;;;;;;76.88;22.35;;;;;;;;;;5024451;28;20569;-76
2023/03/04 12:23:08;;;;;;;;;;;;;;;;;;5025067;28;20033;-75
2023/03/04 12:25:38;;;;;;;71.32;20.80;;;;;;;;;;5025648;28;19920;-75
2023/03/04 12:28:13;;;;;;;70.70;22.30;;;;;;;;;;5030041;28;20056;-77
2023/03/04 12:30:44;;;;;;;73.20;21.73;;;;;;;;;;5023395;28;20029;-76
2023/03/04 12:33:32;;;;;;;68.38;22.60;;;;;;;;;;5021795;28;20030;-78
2023/03/04 12:36:00;;;;;;;72.55;22.27;;;;;;;;;;5023335;28;20041;-77
2023/03/04 12:38:36;;;;;;;79.38;24.05;;;;;;;;;;5021604;28;20026;-78
2023/03/04 12:41:29;;;;;;;70.55;24.25;;;;;;;;;;5018445;28;20052;-77
2023/03/04 12:44:07;;;;;;;85.85;26.65;;;;;;;;;;5015800;28;20384;-77
2023/03/04 12:47:05;;;;;;;71.30;22.70;;;;;;;;;;5022022;28;20116;-75
2023/03/04 12:50:10;;;;;;;68.07;23.45;;;;;;;;;;5028472;28;20144;-76
2023/03/04 12:52:38;;;;;;;73.90;23.85;;;;;;;;;;5028556;28;20047;-75
2023/03/04 12:55:11;;;;;;;72.05;23.45;;;;;;;;;;5029313;28;20389;-76
2023/03/04 12:57:40;;;;;;;68.65;23.67;;;;;;;;;;5029480;28;20025;-75
2023/03/04 13:00:25;;;;;;;71.80;22.83;;;;;;;;;;5029262;28;20025;-77
2023/03/04 13:03:07;;;;;;;70.07;24.50;;;;;;;;;;5031767;28;20036;-77
2023/03/04 13:05:43;;;;;;;69.28;23.67;;;;;;;;;;5024977;28;20029;-78
2023/03/04 13:08:17;;;;;;;67.22;22.08;;;;;;;;;;5027921;28;20029;-79
2023/03/04 13:10:42;;;;;;;65.47;23.20;;;;;;;;;;5028027;28;20112;-78
2023/03/04 13:13:33;;;;;;;66.65;23.80;;;;;;;;;;5030359;28;20124;-77
2023/03/04 13:16:18;;;;;;;63.40;23.17;;;;;;;;;;5024581;28;20355;-75
2023/03/04 13:18:43;;;;;;;73.35;25.55;;;;;;;;;;5027738;28;20029;-77
2023/03/04 13:21:19;;;;;;;80.50;24.58;;;;;;;;;;5024888;28;20109;-77
2023/03/04 13:23:45;;;;;;;80.38;27.27;;;;;;;;;;5024318;28;20030;-78
2023/03/04 13:26:20;;;;;;;72.63;26.23;;;;;;;;;;5027055;28;20028;-76
2023/03/04 13:28:50;;;;;;;70.57;22.85;;;;;;;;;;5021088;28;20029;-76
2023/03/04 13:31:19;;;;;;;59.92;22.15;;;;;;;;;;5020113;28;20061;-77
2023/03/04 13:33:52;;;;;;;74.18;23.88;;;;;;;;;;5022051;28;20030;-75
2023/03/04 13:36:56;;;;;;;75.45;24.58;;;;;;;;;;5019095;28;20340;-75
2023/03/04 13:39:26;;;;;;;65.22;23.00;;;;;;;;;;5020921;28;20377;-75
2023/03/04 13:41:55;;;;;;;73.43;24.35;;;;;;;;;;5027131;28;20291;-77
2023/03/04 13:44:42;;;;;;;76.45;25.17;;;;;;;;;;5024378;28;20392;-76
2023/03/04 13:47:18;;;;;;;76.80;24.88;;;;;;;;;;5019591;28;20121;-76
2023/03/04 13:49:43;;;;;;;75.47;24.38;;;;;;;;;;5017549;28;20437;-75
2023/03/04 13:52:46;;;;;;;69.57;25.42;;;;;;;;;;5028242;28;20053;-78
2023/03/04 13:55:33;;;;;;;68.07;24.98;;;;;;;;;;5028368;28;20056;-76
2023/03/04 13:58:00;;;;;;;70.25;23.70;;;;;;;;;;5022441;28;20025;-76
2023/03/04 14:00:29;;;;;;;69.43;24.60;;;;;;;;;;5027598;28;20043;-76
2023/03/04 14:02:54;;;;;;;68.80;24.53;;;;;;;;;;5028320;28;20567;-78
2023/03/04 14:05:20;;;;;;;65.57;24.17;;;;;;;;;;5020807;28;20101;-77
2023/03/04 14:07:46;;;;;;;64.25;24.08;;;;;;;;;;5021930;28;20468;-76
2023/03/04 14:10:11;;;;;;;72.45;25.83;;;;;;;;;;5026440;28;20075;-76
2023/03/04 14:12:46;;;;;;;74.45;25.35;;;;;;;;;;5026717;28;20064;-77
2023/03/04 14:15:14;;;;;;;67.15;24.23;;;;;;;;;;5023716;28;20121;-76
2023/03/04 14:17:44;;;;;;;84.32;26.02;;;;;;;;;;5025407;28;20026;-75
2023/03/04 14:20:34;;;;;;;109.63;66.57;;;;;;;;;;5028523;28;20422;-76
2023/03/04 14:23:03;;;;;;;77.28;35.20;;;;;;;;;;5023440;28;20060;-77
2023/03/04 14:25:34;;;;;;;71.70;28.00;;;;;;;;;;5025629;28;20072;-77
2023/03/04 14:28:10;;;;;;;65.55;24.08;;;;;;;;;;5030499;28;20029;-76
2023/03/04 14:30:36;;;;;;;76.68;26.38;;;;;;;;;;5026318;28;20106;-77
2023/03/04 14:33:07;;;;;;;67.45;23.70;;;;;;;;;;5024870;28;20476;-76
2023/03/04 14:35:33;;;;;;;67.45;25.35;;;;;;;;;;5027267;28;20072;-76